PWSweather.com
Personal Weather Stations
Station Observations
ISYDDANM23
Felsted, AabenraaDK 6200

FelstedAabenraaDK 6200

Lat: 54.977066, Lon: 9.507192

Elevation: 135

Station Type: Davis Vantage Pro 2 Plus 24H

http://www.valkaer.dk

High Low Average
Temperature 62.5°F16.9°C 57.6°F14.2°C 59.6°F15.3°C
Dew Point 58.6°F14.8°C 55.6°F13.1°C 56.8°F13.8°C
Winds 11.5 mph 18.5 kmh 1.2 mph 1.9 kmh 5.0 mph SE8.0 kmh SE
Wind Gusts 16.1 mph25.9 kmh 2.3 mph3.7 kmh 8.0 mph12.9 kmh
Humidity 93% 82% 90%
Pressure 29.77 in1008.1 mb 29.69 in1005.4 mb -
Precipitation 0.03 in0.8 mm - -
Hour Temp Dew Point Humidity Winds Wind Gusts Pressure Precip Precip Rate Daily Precip Total
12:00 AM 58.1°F14.5°C 56.1°F13.4°C 93% 2.3 mph E3.7 kmh E 3.5 mph5.6 kmh 29.73 in1006.8 mb - 0.00 in0.0 mm 0.00 in0.0 mm
12:10 AM 58.1°F14.5°C 56.1°F13.4°C 93% 2.3 mph E3.7 kmh E 6.9 mph11.1 kmh 29.73 in1006.8 mb - 0.00 in0.0 mm 0.00 in0.0 mm
12:15 AM 58.1°F14.5°C 56.1°F13.4°C 93% 2.3 mph E3.7 kmh E 3.5 mph5.6 kmh 29.73 in1006.8 mb - 0.00 in0.0 mm 0.00 in0.0 mm
12:20 AM 58.1°F14.5°C 56.1°F13.4°C 93% 2.3 mph E3.7 kmh E 3.5 mph5.6 kmh 29.73 in1006.8 mb - 0.00 in0.0 mm 0.00 in0.0 mm
12:25 AM 58.1°F14.5°C 56.1°F13.4°C 93% 2.3 mph E3.7 kmh E 3.5 mph5.6 kmh 29.73 in1006.8 mb - 0.00 in0.0 mm 0.00 in0.0 mm
12:30 AM 58.1°F14.5°C 56.1°F13.4°C 93% 2.3 mph E3.7 kmh E 3.5 mph5.6 kmh 29.73 in1006.8 mb - 0.00 in0.0 mm 0.00 in0.0 mm
12:35 AM 58.1°F14.5°C 56.1°F13.4°C 93% 2.3 mph E3.7 kmh E 3.5 mph5.6 kmh 29.73 in1006.8 mb - 0.00 in0.0 mm 0.00 in0.0 mm
12:40 AM 58.1°F14.5°C 56.1°F13.4°C 93% 3.5 mph E5.6 kmh E 6.9 mph11.1 kmh 29.73 in1006.8 mb - 0.00 in0.0 mm 0.00 in0.0 mm
12:45 AM 58.1°F14.5°C 56.1°F13.4°C 93% 3.5 mph E5.6 kmh E 6.9 mph11.1 kmh 29.73 in1006.8 mb - 0.00 in0.0 mm 0.00 in0.0 mm
12:50 AM 58.0°F14.4°C 56.0°F13.3°C 93% 2.3 mph E3.7 kmh E 5.8 mph9.3 kmh 29.73 in1006.8 mb - 0.00 in0.0 mm 0.00 in0.0 mm
12:55 AM 58.0°F14.4°C 55.9°F13.3°C 93% 3.5 mph E5.6 kmh E 4.6 mph7.4 kmh 29.73 in1006.8 mb - 0.00 in0.0 mm 0.00 in0.0 mm
01:00 AM 58.0°F14.4°C 55.9°F13.3°C 93% 4.6 mph E7.4 kmh E 8.1 mph13.0 kmh 29.73 in1006.8 mb - 0.00 in0.0 mm 0.00 in0.0 mm
01:10 AM 57.9°F14.4°C 55.9°F13.3°C 93% 2.3 mph ESE3.7 kmh ESE 3.5 mph5.6 kmh 29.73 in1006.8 mb - 0.00 in0.0 mm 0.00 in0.0 mm
01:15 AM 57.9°F14.4°C 55.9°F13.3°C 93% 3.5 mph E5.6 kmh E 5.8 mph9.3 kmh 29.73 in1006.8 mb - 0.00 in0.0 mm 0.00 in0.0 mm
01:20 AM 57.9°F14.4°C 55.9°F13.3°C 93% 3.5 mph ESE5.6 kmh ESE 3.5 mph5.6 kmh 29.73 in1006.8 mb - 0.00 in0.0 mm 0.00 in0.0 mm
01:25 AM 57.9°F14.4°C 55.9°F13.3°C 93% 2.3 mph ESE3.7 kmh ESE 5.8 mph9.3 kmh 29.73 in1006.8 mb - 0.00 in0.0 mm 0.00 in0.0 mm
01:30 AM 57.9°F14.4°C 55.9°F13.3°C 93% 2.3 mph E3.7 kmh E 2.3 mph3.7 kmh 29.73 in1006.8 mb - 0.00 in0.0 mm 0.00 in0.0 mm
01:35 AM 57.9°F14.4°C 55.9°F13.3°C 93% 2.3 mph E3.7 kmh E 5.8 mph9.3 kmh 29.73 in1006.8 mb - 0.00 in0.0 mm 0.00 in0.0 mm
01:40 AM 57.9°F14.4°C 55.9°F13.3°C 93% 2.3 mph ESE3.7 kmh ESE 3.5 mph5.6 kmh 29.73 in1006.8 mb - 0.00 in0.0 mm 0.00 in0.0 mm
01:45 AM 58.0°F14.4°C 56.0°F13.3°C 93% 2.3 mph E3.7 kmh E 3.5 mph5.6 kmh 29.73 in1006.8 mb - 0.00 in0.0 mm 0.00 in0.0 mm
01:50 AM 57.9°F14.4°C 55.9°F13.3°C 93% 2.3 mph SE3.7 kmh SE 3.5 mph5.6 kmh 29.73 in1006.8 mb - 0.00 in0.0 mm 0.00 in0.0 mm
01:55 AM 58.0°F14.4°C 56.0°F13.3°C 93% 2.3 mph E3.7 kmh E 3.5 mph5.6 kmh 29.73 in1006.8 mb - 0.00 in0.0 mm 0.00 in0.0 mm
02:00 AM 57.9°F14.4°C 55.9°F13.3°C 93% 1.2 mph ESE1.9 kmh ESE 2.3 mph3.7 kmh 29.73 in1006.8 mb - 0.00 in0.0 mm 0.00 in0.0 mm
02:10 AM 57.9°F14.4°C 55.9°F13.3°C 93% 2.3 mph E3.7 kmh E 3.5 mph5.6 kmh 29.73 in1006.8 mb - 0.00 in0.0 mm 0.00 in0.0 mm
02:15 AM 57.9°F14.4°C 55.9°F13.3°C 93% 3.5 mph E5.6 kmh E 3.5 mph5.6 kmh 29.73 in1006.8 mb - 0.00 in0.0 mm 0.00 in0.0 mm
02:20 AM 57.9°F14.4°C 55.9°F13.3°C 93% 2.3 mph E3.7 kmh E 4.6 mph7.4 kmh 29.73 in1006.8 mb - 0.00 in0.0 mm 0.00 in0.0 mm
02:25 AM 57.9°F14.4°C 55.9°F13.3°C 93% 2.3 mph E3.7 kmh E 3.5 mph5.6 kmh 29.73 in1006.8 mb - 0.00 in0.0 mm 0.00 in0.0 mm
02:30 AM 57.9°F14.4°C 55.9°F13.3°C 93% 2.3 mph E3.7 kmh E 3.5 mph5.6 kmh 29.73 in1006.8 mb - 0.00 in0.0 mm 0.00 in0.0 mm
02:35 AM 57.9°F14.4°C 55.9°F13.3°C 93% 2.3 mph E3.7 kmh E 3.5 mph5.6 kmh 29.73 in1006.8 mb - 0.00 in0.0 mm 0.00 in0.0 mm
02:40 AM 57.9°F14.4°C 55.9°F13.3°C 93% 2.3 mph E3.7 kmh E 3.5 mph5.6 kmh 29.73 in1006.8 mb - 0.00 in0.0 mm 0.00 in0.0 mm
02:45 AM 57.8°F14.3°C 55.8°F13.2°C 93% 1.2 mph E1.9 kmh E 3.5 mph5.6 kmh 29.73 in1006.8 mb - 0.00 in0.0 mm 0.00 in0.0 mm
02:50 AM 57.8°F14.3°C 55.8°F13.2°C 93% 2.3 mph E3.7 kmh E 3.5 mph5.6 kmh 29.73 in1006.8 mb - 0.00 in0.0 mm 0.00 in0.0 mm
02:55 AM 57.8°F14.3°C 55.8°F13.2°C 93% 2.3 mph E3.7 kmh E 2.3 mph3.7 kmh 29.73 in1006.8 mb - 0.00 in0.0 mm 0.00 in0.0 mm
03:00 AM 57.8°F14.3°C 55.8°F13.2°C 93% 2.3 mph E3.7 kmh E 3.5 mph5.6 kmh 29.73 in1006.8 mb - 0.00 in0.0 mm 0.00 in0.0 mm
03:10 AM 57.7°F14.3°C 55.7°F13.2°C 93% 1.2 mph SE1.9 kmh SE 3.5 mph5.6 kmh 29.73 in1006.8 mb - 0.00 in0.0 mm 0.00 in0.0 mm
03:15 AM 57.7°F14.3°C 55.7°F13.2°C 93% 3.5 mph SE5.6 kmh SE 5.8 mph9.3 kmh 29.73 in1006.8 mb - 0.00 in0.0 mm 0.00 in0.0 mm
03:20 AM 57.7°F14.3°C 55.7°F13.2°C 93% 3.5 mph E5.6 kmh E 4.6 mph7.4 kmh 29.73 in1006.8 mb - 0.00 in0.0 mm 0.00 in0.0 mm
03:25 AM 57.7°F14.3°C 55.7°F13.2°C 93% 2.3 mph E3.7 kmh E 5.8 mph9.3 kmh 29.73 in1006.8 mb - 0.00 in0.0 mm 0.00 in0.0 mm
03:30 AM 57.7°F14.3°C 55.7°F13.2°C 93% 2.3 mph ESE3.7 kmh ESE 3.5 mph5.6 kmh 29.73 in1006.8 mb - 0.00 in0.0 mm 0.00 in0.0 mm
03:35 AM 57.6°F14.2°C 55.6°F13.1°C 93% 2.3 mph E3.7 kmh E 3.5 mph5.6 kmh 29.73 in1006.8 mb - 0.00 in0.0 mm 0.00 in0.0 mm
03:40 AM 57.7°F14.3°C 55.7°F13.2°C 93% 2.3 mph ESE3.7 kmh ESE 3.5 mph5.6 kmh 29.73 in1006.8 mb - 0.00 in0.0 mm 0.00 in0.0 mm
03:45 AM 57.7°F14.3°C 55.7°F13.2°C 93% 3.5 mph SE5.6 kmh SE 3.5 mph5.6 kmh 29.73 in1006.8 mb - 0.00 in0.0 mm 0.00 in0.0 mm
03:50 AM 57.8°F14.3°C 55.8°F13.2°C 93% 2.3 mph SE3.7 kmh SE 3.5 mph5.6 kmh 29.73 in1006.8 mb - 0.00 in0.0 mm 0.00 in0.0 mm
03:55 AM 57.9°F14.4°C 55.9°F13.3°C 93% 3.5 mph SE5.6 kmh SE 5.8 mph9.3 kmh 29.73 in1006.8 mb - 0.00 in0.0 mm 0.00 in0.0 mm
04:00 AM 57.9°F14.4°C 55.9°F13.3°C 93% 2.3 mph ESE3.7 kmh ESE 3.5 mph5.6 kmh 29.73 in1006.8 mb - 0.00 in0.0 mm 0.00 in0.0 mm
04:10 AM 58.0°F14.4°C 56.0°F13.3°C 93% 3.5 mph E5.6 kmh E 5.8 mph9.3 kmh 29.73 in1006.8 mb - 0.00 in0.0 mm 0.00 in0.0 mm
04:15 AM 58.1°F14.5°C 56.1°F13.4°C 93% 2.3 mph E3.7 kmh E 3.5 mph5.6 kmh 29.73 in1006.8 mb - 0.00 in0.0 mm 0.00 in0.0 mm
04:20 AM 58.1°F14.5°C 56.1°F13.4°C 93% 2.3 mph E3.7 kmh E 3.5 mph5.6 kmh 29.73 in1006.8 mb - 0.00 in0.0 mm 0.00 in0.0 mm
04:25 AM 58.1°F14.5°C 56.1°F13.4°C 93% 2.3 mph E3.7 kmh E 6.9 mph11.1 kmh 29.73 in1006.8 mb - 0.00 in0.0 mm 0.00 in0.0 mm
04:30 AM 58.1°F14.5°C 56.1°F13.4°C 93% 2.3 mph ESE3.7 kmh ESE 5.8 mph9.3 kmh 29.73 in1006.8 mb - 0.00 in0.0 mm 0.00 in0.0 mm
04:35 AM 58.1°F14.5°C 56.0°F13.3°C 93% 2.3 mph SE3.7 kmh SE 3.5 mph5.6 kmh 29.73 in1006.8 mb - 0.00 in0.0 mm 0.00 in0.0 mm
04:40 AM 58.0°F14.4°C 56.0°F13.3°C 93% 3.5 mph E5.6 kmh E 3.5 mph5.6 kmh 29.73 in1006.8 mb - 0.00 in0.0 mm 0.00 in0.0 mm
04:45 AM 58.0°F14.4°C 56.0°F13.3°C 93% 2.3 mph ESE3.7 kmh ESE 3.5 mph5.6 kmh 29.73 in1006.8 mb - 0.00 in0.0 mm 0.00 in0.0 mm
04:50 AM 58.1°F14.5°C 56.0°F13.3°C 93% 4.6 mph E7.4 kmh E 5.8 mph9.3 kmh 29.73 in1006.8 mb - 0.00 in0.0 mm 0.00 in0.0 mm
04:55 AM 58.0°F14.4°C 56.0°F13.3°C 93% 3.5 mph E5.6 kmh E 5.8 mph9.3 kmh 29.73 in1006.8 mb - 0.00 in0.0 mm 0.00 in0.0 mm
05:00 AM 58.0°F14.4°C 56.0°F13.3°C 93% 3.5 mph E5.6 kmh E 4.6 mph7.4 kmh 29.73 in1006.8 mb - 0.00 in0.0 mm 0.00 in0.0 mm
05:10 AM 57.9°F14.4°C 55.9°F13.3°C 93% 2.3 mph E3.7 kmh E 3.5 mph5.6 kmh 29.73 in1006.8 mb - 0.00 in0.0 mm 0.00 in0.0 mm
05:15 AM 57.9°F14.4°C 55.9°F13.3°C 93% 1.2 mph SE1.9 kmh SE 3.5 mph5.6 kmh 29.73 in1006.8 mb - 0.00 in0.0 mm 0.00 in0.0 mm
05:20 AM 57.9°F14.4°C 55.9°F13.3°C 93% 1.2 mph SE1.9 kmh SE 2.3 mph3.7 kmh 29.74 in1007.1 mb - 0.00 in0.0 mm 0.00 in0.0 mm
05:25 AM 57.9°F14.4°C 55.9°F13.3°C 93% 1.2 mph ESE1.9 kmh ESE 3.5 mph5.6 kmh 29.74 in1007.1 mb - 0.00 in0.0 mm 0.00 in0.0 mm
05:30 AM 57.9°F14.4°C 55.8°F13.2°C 93% 2.3 mph ESE3.7 kmh ESE 3.5 mph5.6 kmh 29.74 in1007.1 mb - 0.00 in0.0 mm 0.00 in0.0 mm
05:35 AM 57.8°F14.3°C 55.8°F13.2°C 93% 2.3 mph E3.7 kmh E 4.6 mph7.4 kmh 29.74 in1007.1 mb - 0.00 in0.0 mm 0.00 in0.0 mm
05:40 AM 57.8°F14.3°C 55.8°F13.2°C 93% 2.3 mph E3.7 kmh E 3.5 mph5.6 kmh 29.74 in1007.1 mb - 0.00 in0.0 mm 0.00 in0.0 mm
05:45 AM 57.8°F14.3°C 55.8°F13.2°C 93% 2.3 mph SE3.7 kmh SE 4.6 mph7.4 kmh 29.74 in1007.1 mb - 0.00 in0.0 mm 0.00 in0.0 mm
05:50 AM 57.8°F14.3°C 55.8°F13.2°C 93% 2.3 mph SE3.7 kmh SE 3.5 mph5.6 kmh 29.74 in1007.1 mb - 0.00 in0.0 mm 0.00 in0.0 mm
05:55 AM 57.8°F14.3°C 55.8°F13.2°C 93% 3.5 mph E5.6 kmh E 6.9 mph11.1 kmh 29.74 in1007.1 mb - 0.00 in0.0 mm 0.00 in0.0 mm
06:00 AM 57.8°F14.3°C 55.8°F13.2°C 93% 2.3 mph E3.7 kmh E 3.5 mph5.6 kmh 29.74 in1007.1 mb - 0.00 in0.0 mm 0.00 in0.0 mm
06:10 AM 57.7°F14.3°C 55.7°F13.2°C 93% 3.5 mph ESE5.6 kmh ESE 3.5 mph5.6 kmh 29.74 in1007.1 mb - 0.00 in0.0 mm 0.00 in0.0 mm
06:15 AM 57.7°F14.3°C 55.7°F13.2°C 93% 2.3 mph SE3.7 kmh SE 3.5 mph5.6 kmh 29.74 in1007.1 mb - 0.00 in0.0 mm 0.00 in0.0 mm
06:20 AM 57.7°F14.3°C 55.7°F13.2°C 93% 2.3 mph SE3.7 kmh SE 3.5 mph5.6 kmh 29.75 in1007.5 mb - 0.00 in0.0 mm 0.00 in0.0 mm
06:25 AM 57.6°F14.2°C 55.6°F13.1°C 93% 2.3 mph ESE3.7 kmh ESE 3.5 mph5.6 kmh 29.75 in1007.5 mb - 0.00 in0.0 mm 0.00 in0.0 mm
06:30 AM 57.7°F14.3°C 55.7°F13.2°C 93% 3.5 mph ESE5.6 kmh ESE 5.8 mph9.3 kmh 29.75 in1007.5 mb - 0.00 in0.0 mm 0.00 in0.0 mm
06:35 AM 57.7°F14.3°C 55.7°F13.2°C 93% 3.5 mph ESE5.6 kmh ESE 6.9 mph11.1 kmh 29.75 in1007.5 mb - 0.00 in0.0 mm 0.00 in0.0 mm
06:40 AM 57.7°F14.3°C 55.7°F13.2°C 93% 1.2 mph E1.9 kmh E 3.5 mph5.6 kmh 29.75 in1007.5 mb - 0.00 in0.0 mm 0.00 in0.0 mm
06:45 AM 57.7°F14.3°C 55.7°F13.2°C 93% 2.3 mph E3.7 kmh E 3.5 mph5.6 kmh 29.75 in1007.5 mb - 0.00 in0.0 mm 0.00 in0.0 mm
06:50 AM 57.7°F14.3°C 55.7°F13.2°C 93% 1.2 mph ESE1.9 kmh ESE 3.5 mph5.6 kmh 29.75 in1007.5 mb - 0.00 in0.0 mm 0.00 in0.0 mm
06:55 AM 57.7°F14.3°C 55.7°F13.2°C 93% 1.2 mph SE1.9 kmh SE 3.5 mph5.6 kmh 29.75 in1007.5 mb - 0.00 in0.0 mm 0.00 in0.0 mm
07:00 AM 57.8°F14.3°C 55.8°F13.2°C 93% 2.3 mph E3.7 kmh E 4.6 mph7.4 kmh 29.75 in1007.5 mb - 0.00 in0.0 mm 0.00 in0.0 mm
07:10 AM 57.8°F14.3°C 55.8°F13.2°C 93% 3.5 mph E5.6 kmh E 6.9 mph11.1 kmh 29.75 in1007.5 mb - 0.00 in0.0 mm 0.00 in0.0 mm
07:15 AM 57.8°F14.3°C 55.8°F13.2°C 93% 3.5 mph E5.6 kmh E 6.9 mph11.1 kmh 29.75 in1007.5 mb - 0.00 in0.0 mm 0.00 in0.0 mm
07:20 AM 57.9°F14.4°C 55.9°F13.3°C 93% 2.3 mph ESE3.7 kmh ESE 2.3 mph3.7 kmh 29.75 in1007.5 mb - 0.00 in0.0 mm 0.00 in0.0 mm
07:25 AM 57.9°F14.4°C 55.9°F13.3°C 93% 3.5 mph SE5.6 kmh SE 5.8 mph9.3 kmh 29.75 in1007.5 mb - 0.00 in0.0 mm 0.00 in0.0 mm
07:30 AM 58.0°F14.4°C 56.0°F13.3°C 93% 3.5 mph SE5.6 kmh SE 8.1 mph13.0 kmh 29.75 in1007.5 mb - 0.00 in0.0 mm 0.00 in0.0 mm
07:35 AM 58.1°F14.5°C 56.1°F13.4°C 93% 3.5 mph ESE5.6 kmh ESE 3.5 mph5.6 kmh 29.75 in1007.5 mb - 0.00 in0.0 mm 0.00 in0.0 mm
07:40 AM 58.1°F14.5°C 56.1°F13.4°C 93% 2.3 mph SE3.7 kmh SE 3.5 mph5.6 kmh 29.75 in1007.5 mb - 0.00 in0.0 mm 0.00 in0.0 mm
07:45 AM 58.2°F14.6°C 56.2°F13.4°C 93% 2.3 mph ESE3.7 kmh ESE 3.5 mph5.6 kmh 29.75 in1007.5 mb - 0.00 in0.0 mm 0.00 in0.0 mm
07:50 AM 58.3°F14.6°C 56.3°F13.5°C 93% 4.6 mph SE7.4 kmh SE 6.9 mph11.1 kmh 29.75 in1007.5 mb - 0.00 in0.0 mm 0.00 in0.0 mm
07:55 AM 58.4°F14.7°C 56.4°F13.6°C 93% 4.6 mph ESE7.4 kmh ESE 8.1 mph13.0 kmh 29.75 in1007.5 mb - 0.00 in0.0 mm 0.00 in0.0 mm
08:00 AM 58.5°F14.7°C 56.5°F13.6°C 93% 5.8 mph SE9.3 kmh SE 9.2 mph14.8 kmh 29.75 in1007.5 mb - 0.00 in0.0 mm 0.00 in0.0 mm
08:10 AM 58.7°F14.8°C 56.4°F13.6°C 92% 3.5 mph SE5.6 kmh SE 6.9 mph11.1 kmh 29.75 in1007.5 mb - 0.00 in0.0 mm 0.00 in0.0 mm
08:15 AM 58.7°F14.8°C 56.4°F13.6°C 92% 5.8 mph SE9.3 kmh SE 6.9 mph11.1 kmh 29.75 in1007.5 mb - 0.00 in0.0 mm 0.00 in0.0 mm
08:20 AM 58.8°F14.9°C 56.5°F13.6°C 92% 3.5 mph SE5.6 kmh SE 4.6 mph7.4 kmh 29.76 in1007.8 mb - 0.00 in0.0 mm 0.00 in0.0 mm
08:25 AM 58.8°F14.9°C 56.5°F13.6°C 92% 5.8 mph SE9.3 kmh SE 10.4 mph16.7 kmh 29.76 in1007.8 mb - 0.00 in0.0 mm 0.00 in0.0 mm
08:30 AM 58.8°F14.9°C 56.5°F13.6°C 92% 5.8 mph ESE9.3 kmh ESE 6.9 mph11.1 kmh 29.76 in1007.8 mb - 0.00 in0.0 mm 0.00 in0.0 mm
08:35 AM 59.0°F15.0°C 56.4°F13.6°C 91% 6.9 mph SE11.1 kmh SE 10.4 mph16.7 kmh 29.76 in1007.8 mb - 0.01 in0.3 mm 0.01 in0.3 mm
08:40 AM 59.0°F15.0°C 56.4°F13.6°C 91% 6.9 mph SE11.1 kmh SE 9.2 mph14.8 kmh 29.76 in1007.8 mb - 0.01 in0.3 mm 0.01 in0.3 mm
08:45 AM 59.0°F15.0°C 56.4°F13.6°C 91% 4.6 mph ESE7.4 kmh ESE 8.1 mph13.0 kmh 29.76 in1007.8 mb - 0.01 in0.3 mm 0.01 in0.3 mm
08:50 AM 59.1°F15.1°C 56.2°F13.4°C 90% 4.6 mph SE7.4 kmh SE 6.9 mph11.1 kmh 29.76 in1007.8 mb - 0.01 in0.3 mm 0.01 in0.3 mm
08:55 AM 59.4°F15.2°C 56.4°F13.6°C 90% 5.8 mph SE9.3 kmh SE 9.2 mph14.8 kmh 29.76 in1007.8 mb - 0.01 in0.3 mm 0.01 in0.3 mm
09:00 AM 59.4°F15.2°C 56.5°F13.6°C 90% 6.9 mph SE11.1 kmh SE 11.5 mph18.5 kmh 29.76 in1007.8 mb - 0.01 in0.3 mm 0.01 in0.3 mm
09:10 AM 59.5°F15.3°C 56.3°F13.5°C 89% 6.9 mph SE11.1 kmh SE 11.5 mph18.5 kmh 29.76 in1007.8 mb - 0.01 in0.3 mm 0.01 in0.3 mm
09:15 AM 59.3°F15.2°C 56.4°F13.6°C 90% 6.9 mph SE11.1 kmh SE 9.2 mph14.8 kmh 29.76 in1007.8 mb - 0.01 in0.3 mm 0.01 in0.3 mm
09:20 AM 59.4°F15.2°C 56.5°F13.6°C 90% 5.8 mph SE9.3 kmh SE 8.1 mph13.0 kmh 29.76 in1007.8 mb - 0.01 in0.3 mm 0.01 in0.3 mm
09:25 AM 59.5°F15.3°C 56.2°F13.4°C 89% 5.8 mph SE9.3 kmh SE 10.4 mph16.7 kmh 29.76 in1007.8 mb - 0.01 in0.3 mm 0.01 in0.3 mm
09:30 AM 59.6°F15.3°C 56.3°F13.5°C 89% 3.5 mph SE5.6 kmh SE 3.5 mph5.6 kmh 29.76 in1007.8 mb - 0.01 in0.3 mm 0.01 in0.3 mm
09:35 AM 59.8°F15.4°C 56.6°F13.7°C 89% 5.8 mph SE9.3 kmh SE 10.4 mph16.7 kmh 29.76 in1007.8 mb - 0.00 in0.0 mm 0.01 in0.3 mm
09:40 AM 59.8°F15.4°C 56.5°F13.6°C 89% 3.5 mph SE5.6 kmh SE 5.8 mph9.3 kmh 29.76 in1007.8 mb - 0.00 in0.0 mm 0.01 in0.3 mm
09:45 AM 59.7°F15.4°C 56.5°F13.6°C 89% 5.8 mph SE9.3 kmh SE 9.2 mph14.8 kmh 29.76 in1007.8 mb - 0.00 in0.0 mm 0.01 in0.3 mm
09:50 AM 59.8°F15.4°C 56.9°F13.8°C 90% 5.8 mph SE9.3 kmh SE 8.1 mph13.0 kmh 29.76 in1007.8 mb - 0.00 in0.0 mm 0.01 in0.3 mm
09:55 AM 59.9°F15.5°C 56.6°F13.7°C 89% 4.6 mph SE7.4 kmh SE 8.1 mph13.0 kmh 29.76 in1007.8 mb - 0.00 in0.0 mm 0.01 in0.3 mm
10:00 AM 60.1°F15.6°C 56.8°F13.8°C 89% 5.8 mph ESE9.3 kmh ESE 8.1 mph13.0 kmh 29.76 in1007.8 mb - 0.00 in0.0 mm 0.01 in0.3 mm
10:10 AM 60.2°F15.7°C 56.6°F13.7°C 88% 4.6 mph SE7.4 kmh SE 10.4 mph16.7 kmh 29.76 in1007.8 mb - 0.00 in0.0 mm 0.01 in0.3 mm
10:15 AM 60.4°F15.8°C 56.9°F13.8°C 88% 6.9 mph SE11.1 kmh SE 10.4 mph16.7 kmh 29.77 in1008.1 mb - 0.00 in0.0 mm 0.01 in0.3 mm
10:20 AM 60.6°F15.9°C 57.0°F13.9°C 88% 4.6 mph ESE7.4 kmh ESE 5.8 mph9.3 kmh 29.77 in1008.1 mb - 0.00 in0.0 mm 0.01 in0.3 mm
10:25 AM 61.0°F16.1°C 57.4°F14.1°C 88% 3.5 mph ESE5.6 kmh ESE 8.1 mph13.0 kmh 29.77 in1008.1 mb - 0.00 in0.0 mm 0.01 in0.3 mm
10:30 AM 61.4°F16.3°C 56.8°F13.8°C 85% 6.9 mph SE11.1 kmh SE 12.7 mph20.4 kmh 29.76 in1007.8 mb - 0.00 in0.0 mm 0.01 in0.3 mm
10:35 AM 61.7°F16.5°C 57.1°F13.9°C 85% 5.8 mph ESE9.3 kmh ESE 8.1 mph13.0 kmh 29.76 in1007.8 mb - 0.00 in0.0 mm 0.01 in0.3 mm
10:40 AM 62.1°F16.7°C 56.9°F13.8°C 83% 6.9 mph SE11.1 kmh SE 12.7 mph20.4 kmh 29.77 in1008.1 mb - 0.00 in0.0 mm 0.01 in0.3 mm
10:45 AM 61.9°F16.6°C 56.7°F13.7°C 83% 5.8 mph SE9.3 kmh SE 11.5 mph18.5 kmh 29.76 in1007.8 mb - 0.00 in0.0 mm 0.01 in0.3 mm
10:50 AM 61.8°F16.6°C 56.2°F13.4°C 82% 4.6 mph SE7.4 kmh SE 9.2 mph14.8 kmh 29.76 in1007.8 mb - 0.00 in0.0 mm 0.01 in0.3 mm
10:55 AM 61.5°F16.4°C 56.3°F13.5°C 83% 8.1 mph SE13.0 kmh SE 11.5 mph18.5 kmh 29.77 in1008.1 mb - 0.00 in0.0 mm 0.01 in0.3 mm
11:00 AM 61.4°F16.3°C 56.9°F13.8°C 85% 5.8 mph SE9.3 kmh SE 10.4 mph16.7 kmh 29.77 in1008.1 mb - 0.00 in0.0 mm 0.01 in0.3 mm
11:10 AM 61.6°F16.4°C 56.7°F13.7°C 84% 5.8 mph ESE9.3 kmh ESE 10.4 mph16.7 kmh 29.76 in1007.8 mb - 0.00 in0.0 mm 0.01 in0.3 mm
11:15 AM 61.9°F16.6°C 56.7°F13.7°C 83% 6.9 mph SE11.1 kmh SE 10.4 mph16.7 kmh 29.76 in1007.8 mb - 0.00 in0.0 mm 0.01 in0.3 mm
11:20 AM 62.3°F16.8°C 57.4°F14.1°C 84% 4.6 mph ESE7.4 kmh ESE 8.1 mph13.0 kmh 29.76 in1007.8 mb - 0.00 in0.0 mm 0.01 in0.3 mm
11:25 AM 62.5°F16.9°C 57.6°F14.2°C 84% 5.8 mph SE9.3 kmh SE 10.4 mph16.7 kmh 29.76 in1007.8 mb - 0.00 in0.0 mm 0.01 in0.3 mm
11:30 AM 62.4°F16.9°C 57.5°F14.2°C 84% 4.6 mph SE7.4 kmh SE 6.9 mph11.1 kmh 29.76 in1007.8 mb - 0.00 in0.0 mm 0.01 in0.3 mm
11:35 AM 62.2°F16.8°C 57.0°F13.9°C 83% 3.5 mph SE5.6 kmh SE 9.2 mph14.8 kmh 29.77 in1008.1 mb - 0.00 in0.0 mm 0.01 in0.3 mm
11:40 AM 62.2°F16.8°C 57.3°F14.1°C 84% 5.8 mph SE9.3 kmh SE 8.1 mph13.0 kmh 29.77 in1008.1 mb - 0.00 in0.0 mm 0.01 in0.3 mm
11:45 AM 62.2°F16.8°C 57.0°F13.9°C 83% 5.8 mph SE9.3 kmh SE 8.1 mph13.0 kmh 29.77 in1008.1 mb - 0.00 in0.0 mm 0.01 in0.3 mm
11:50 AM 62.1°F16.7°C 56.9°F13.8°C 83% 6.9 mph SE11.1 kmh SE 8.1 mph13.0 kmh 29.77 in1008.1 mb - 0.00 in0.0 mm 0.01 in0.3 mm
11:55 AM 62.0°F16.7°C 56.8°F13.8°C 83% 6.9 mph SE11.1 kmh SE 10.4 mph16.7 kmh 29.77 in1008.1 mb - 0.00 in0.0 mm 0.01 in0.3 mm
12:00 PM 61.9°F16.6°C 56.7°F13.7°C 83% 5.8 mph ESE9.3 kmh ESE 10.4 mph16.7 kmh 29.77 in1008.1 mb - 0.00 in0.0 mm 0.01 in0.3 mm
12:10 PM 62.3°F16.8°C 57.1°F13.9°C 83% 5.8 mph SE9.3 kmh SE 6.9 mph11.1 kmh 29.77 in1008.1 mb - 0.00 in0.0 mm 0.01 in0.3 mm
12:15 PM 62.1°F16.7°C 56.8°F13.8°C 83% 6.9 mph SE11.1 kmh SE 11.5 mph18.5 kmh 29.77 in1008.1 mb - 0.00 in0.0 mm 0.01 in0.3 mm
12:20 PM 62.1°F16.7°C 56.9°F13.8°C 83% 6.9 mph SE11.1 kmh SE 8.1 mph13.0 kmh 29.77 in1008.1 mb - 0.00 in0.0 mm 0.01 in0.3 mm
12:25 PM 62.3°F16.8°C 57.1°F13.9°C 83% 5.8 mph SE9.3 kmh SE 8.1 mph13.0 kmh 29.77 in1008.1 mb - 0.00 in0.0 mm 0.01 in0.3 mm
12:30 PM 62.1°F16.7°C 56.9°F13.8°C 83% 8.1 mph SE13.0 kmh SE 10.4 mph16.7 kmh 29.77 in1008.1 mb - 0.00 in0.0 mm 0.01 in0.3 mm
12:35 PM 61.7°F16.5°C 56.5°F13.6°C 83% 6.9 mph SE11.1 kmh SE 10.4 mph16.7 kmh 29.77 in1008.1 mb - 0.00 in0.0 mm 0.01 in0.3 mm
12:40 PM 61.6°F16.4°C 56.7°F13.7°C 84% 8.1 mph SE13.0 kmh SE 12.7 mph20.4 kmh 29.77 in1008.1 mb - 0.00 in0.0 mm 0.01 in0.3 mm
12:45 PM 61.7°F16.5°C 56.8°F13.8°C 84% 6.9 mph SE11.1 kmh SE 10.4 mph16.7 kmh 29.77 in1008.1 mb - 0.00 in0.0 mm 0.01 in0.3 mm
12:50 PM 61.4°F16.3°C 56.5°F13.6°C 84% 6.9 mph SE11.1 kmh SE 10.4 mph16.7 kmh 29.77 in1008.1 mb - 0.00 in0.0 mm 0.01 in0.3 mm
12:55 PM 60.8°F16.0°C 56.3°F13.5°C 85% 8.1 mph SE13.0 kmh SE 11.5 mph18.5 kmh 29.77 in1008.1 mb - 0.00 in0.0 mm 0.01 in0.3 mm
01:00 PM 60.5°F15.8°C 56.3°F13.5°C 86% 6.9 mph SE11.1 kmh SE 11.5 mph18.5 kmh 29.76 in1007.8 mb - 0.00 in0.0 mm 0.01 in0.3 mm
01:10 PM 60.5°F15.8°C 56.6°F13.7°C 87% 6.9 mph SE11.1 kmh SE 10.4 mph16.7 kmh 29.76 in1007.8 mb - 0.00 in0.0 mm 0.01 in0.3 mm
01:15 PM 60.3°F15.7°C 56.4°F13.6°C 87% 6.9 mph SE11.1 kmh SE 11.5 mph18.5 kmh 29.77 in1008.1 mb - 0.00 in0.0 mm 0.01 in0.3 mm
01:20 PM 60.1°F15.6°C 56.2°F13.4°C 87% 6.9 mph SE11.1 kmh SE 10.4 mph16.7 kmh 29.77 in1008.1 mb - 0.00 in0.0 mm 0.01 in0.3 mm
01:25 PM 59.9°F15.5°C 56.4°F13.6°C 88% 5.8 mph SE9.3 kmh SE 8.1 mph13.0 kmh 29.76 in1007.8 mb - 0.00 in0.0 mm 0.01 in0.3 mm
01:30 PM 59.8°F15.4°C 56.3°F13.5°C 88% 5.8 mph SE9.3 kmh SE 8.1 mph13.0 kmh 29.77 in1008.1 mb - 0.00 in0.0 mm 0.01 in0.3 mm
01:35 PM 59.6°F15.3°C 56.4°F13.6°C 89% 4.6 mph SE7.4 kmh SE 5.8 mph9.3 kmh 29.77 in1008.1 mb - 0.00 in0.0 mm 0.01 in0.3 mm
01:40 PM 59.6°F15.3°C 56.4°F13.6°C 89% 4.6 mph SE7.4 kmh SE 5.8 mph9.3 kmh 29.76 in1007.8 mb - 0.00 in0.0 mm 0.01 in0.3 mm
01:45 PM 59.7°F15.4°C 56.4°F13.6°C 89% 4.6 mph SE7.4 kmh SE 8.1 mph13.0 kmh 29.76 in1007.8 mb - 0.00 in0.0 mm 0.01 in0.3 mm
01:50 PM 59.8°F15.4°C 56.6°F13.7°C 89% 5.8 mph SE9.3 kmh SE 8.1 mph13.0 kmh 29.77 in1008.1 mb - 0.00 in0.0 mm 0.01 in0.3 mm
01:55 PM 59.9°F15.5°C 56.6°F13.7°C 89% 3.5 mph SE5.6 kmh SE 6.9 mph11.1 kmh 29.77 in1008.1 mb - 0.00 in0.0 mm 0.01 in0.3 mm
02:00 PM 59.8°F15.4°C 56.6°F13.7°C 89% 5.8 mph SE9.3 kmh SE 8.1 mph13.0 kmh 29.76 in1007.8 mb - 0.00 in0.0 mm 0.01 in0.3 mm
02:10 PM 59.8°F15.4°C 56.3°F13.5°C 88% 5.8 mph SE9.3 kmh SE 8.1 mph13.0 kmh 29.76 in1007.8 mb - 0.00 in0.0 mm 0.01 in0.3 mm
02:15 PM 60.2°F15.7°C 56.6°F13.7°C 88% 5.8 mph SE9.3 kmh SE 9.2 mph14.8 kmh 29.76 in1007.8 mb - 0.00 in0.0 mm 0.01 in0.3 mm
02:20 PM 60.8°F16.0°C 56.9°F13.8°C 87% 4.6 mph SE7.4 kmh SE 8.1 mph13.0 kmh 29.76 in1007.8 mb - 0.00 in0.0 mm 0.01 in0.3 mm
02:25 PM 61.0°F16.1°C 57.1°F13.9°C 87% 4.6 mph SSE7.4 kmh SSE 8.1 mph13.0 kmh 29.76 in1007.8 mb - 0.00 in0.0 mm 0.01 in0.3 mm
02:30 PM 61.1°F16.2°C 56.9°F13.8°C 86% 4.6 mph SSE7.4 kmh SSE 5.8 mph9.3 kmh 29.76 in1007.8 mb - 0.00 in0.0 mm 0.01 in0.3 mm
02:35 PM 61.3°F16.3°C 57.0°F13.9°C 86% 8.1 mph SE13.0 kmh SE 9.2 mph14.8 kmh 29.76 in1007.8 mb - 0.00 in0.0 mm 0.01 in0.3 mm
02:40 PM 60.8°F16.0°C 56.6°F13.7°C 86% 6.9 mph SE11.1 kmh SE 6.9 mph11.1 kmh 29.76 in1007.8 mb - 0.00 in0.0 mm 0.01 in0.3 mm
02:45 PM 60.6°F15.9°C 56.7°F13.7°C 87% 5.8 mph SSE9.3 kmh SSE 5.8 mph9.3 kmh 29.76 in1007.8 mb - 0.00 in0.0 mm 0.01 in0.3 mm
02:50 PM 60.6°F15.9°C 56.7°F13.7°C 87% 4.6 mph SE7.4 kmh SE 11.5 mph18.5 kmh 29.76 in1007.8 mb - 0.00 in0.0 mm 0.01 in0.3 mm
02:55 PM 60.4°F15.8°C 56.5°F13.6°C 87% 5.8 mph SSE9.3 kmh SSE 10.4 mph16.7 kmh 29.76 in1007.8 mb - 0.00 in0.0 mm 0.01 in0.3 mm
03:00 PM 60.4°F15.8°C 56.6°F13.7°C 87% 5.8 mph SSE9.3 kmh SSE 11.5 mph18.5 kmh 29.76 in1007.8 mb - 0.00 in0.0 mm 0.01 in0.3 mm
03:10 PM 60.6°F15.9°C 57.0°F13.9°C 88% 5.8 mph SSE9.3 kmh SSE 8.1 mph13.0 kmh 29.76 in1007.8 mb - 0.00 in0.0 mm 0.01 in0.3 mm
03:15 PM 60.7°F15.9°C 57.1°F13.9°C 88% 4.6 mph SE7.4 kmh SE 8.1 mph13.0 kmh 29.76 in1007.8 mb - 0.00 in0.0 mm 0.01 in0.3 mm
03:20 PM 60.7°F15.9°C 57.1°F13.9°C 88% 6.9 mph SE11.1 kmh SE 11.5 mph18.5 kmh 29.76 in1007.8 mb - 0.00 in0.0 mm 0.01 in0.3 mm
03:25 PM 60.7°F15.9°C 57.1°F13.9°C 88% 6.9 mph SE11.1 kmh SE 9.2 mph14.8 kmh 29.76 in1007.8 mb - 0.00 in0.0 mm 0.01 in0.3 mm
03:30 PM 60.6°F15.9°C 57.1°F13.9°C 88% 5.8 mph SSE9.3 kmh SSE 10.4 mph16.7 kmh 29.76 in1007.8 mb - 0.00 in0.0 mm 0.01 in0.3 mm
03:35 PM 60.6°F15.9°C 57.0°F13.9°C 88% 5.8 mph SE9.3 kmh SE 8.1 mph13.0 kmh 29.75 in1007.5 mb - 0.00 in0.0 mm 0.01 in0.3 mm
03:40 PM 60.6°F15.9°C 57.0°F13.9°C 88% 5.8 mph SE9.3 kmh SE 9.2 mph14.8 kmh 29.76 in1007.8 mb - 0.00 in0.0 mm 0.01 in0.3 mm
03:45 PM 60.7°F15.9°C 57.1°F13.9°C 88% 5.8 mph SE9.3 kmh SE 11.5 mph18.5 kmh 29.75 in1007.5 mb - 0.00 in0.0 mm 0.01 in0.3 mm
03:50 PM 60.6°F15.9°C 57.0°F13.9°C 88% 6.9 mph SE11.1 kmh SE 10.4 mph16.7 kmh 29.75 in1007.5 mb - 0.00 in0.0 mm 0.01 in0.3 mm
03:55 PM 60.6°F15.9°C 57.0°F13.9°C 88% 6.9 mph SE11.1 kmh SE 11.5 mph18.5 kmh 29.75 in1007.5 mb - 0.00 in0.0 mm 0.01 in0.3 mm
04:00 PM 60.7°F15.9°C 57.1°F13.9°C 88% 5.8 mph SSE9.3 kmh SSE 9.2 mph14.8 kmh 29.76 in1007.8 mb - 0.00 in0.0 mm 0.01 in0.3 mm
04:10 PM 60.6°F15.9°C 57.0°F13.9°C 88% 6.9 mph SSE11.1 kmh SSE 8.1 mph13.0 kmh 29.76 in1007.8 mb - 0.00 in0.0 mm 0.01 in0.3 mm
04:15 PM 60.6°F15.9°C 57.0°F13.9°C 88% 3.5 mph SE5.6 kmh SE 8.1 mph13.0 kmh 29.75 in1007.5 mb - 0.00 in0.0 mm 0.01 in0.3 mm
04:20 PM 60.5°F15.8°C 56.9°F13.8°C 88% 5.8 mph SSE9.3 kmh SSE 10.4 mph16.7 kmh 29.75 in1007.5 mb - 0.00 in0.0 mm 0.01 in0.3 mm
04:25 PM 60.5°F15.8°C 56.9°F13.8°C 88% 6.9 mph SE11.1 kmh SE 10.4 mph16.7 kmh 29.75 in1007.5 mb - 0.00 in0.0 mm 0.01 in0.3 mm
04:30 PM 60.4°F15.8°C 56.8°F13.8°C 88% 6.9 mph SE11.1 kmh SE 11.5 mph18.5 kmh 29.75 in1007.5 mb - 0.00 in0.0 mm 0.01 in0.3 mm
04:35 PM 60.4°F15.8°C 57.1°F13.9°C 89% 4.6 mph SSE7.4 kmh SSE 6.9 mph11.1 kmh 29.75 in1007.5 mb - 0.00 in0.0 mm 0.01 in0.3 mm
04:40 PM 60.4°F15.8°C 57.1°F13.9°C 89% 5.8 mph SSE9.3 kmh SSE 10.4 mph16.7 kmh 29.75 in1007.5 mb - 0.00 in0.0 mm 0.01 in0.3 mm
04:45 PM 60.3°F15.7°C 57.1°F13.9°C 89% 5.8 mph SSE9.3 kmh SSE 5.8 mph9.3 kmh 29.75 in1007.5 mb - 0.00 in0.0 mm 0.01 in0.3 mm
04:50 PM 60.3°F15.7°C 57.0°F13.9°C 89% 3.5 mph SSE5.6 kmh SSE 8.1 mph13.0 kmh 29.75 in1007.5 mb - 0.00 in0.0 mm 0.01 in0.3 mm
04:55 PM 60.3°F15.7°C 57.1°F13.9°C 89% 4.6 mph SE7.4 kmh SE 9.2 mph14.8 kmh 29.75 in1007.5 mb - 0.00 in0.0 mm 0.01 in0.3 mm
05:00 PM 60.4°F15.8°C 57.1°F13.9°C 89% 6.9 mph SE11.1 kmh SE 9.2 mph14.8 kmh 29.75 in1007.5 mb - 0.00 in0.0 mm 0.01 in0.3 mm
05:10 PM 60.5°F15.8°C 57.2°F14.0°C 89% 4.6 mph SE7.4 kmh SE 10.4 mph16.7 kmh 29.74 in1007.1 mb - 0.00 in0.0 mm 0.01 in0.3 mm
05:15 PM 60.5°F15.8°C 57.2°F14.0°C 89% 6.9 mph SE11.1 kmh SE 10.4 mph16.7 kmh 29.74 in1007.1 mb - 0.00 in0.0 mm 0.01 in0.3 mm
05:20 PM 60.4°F15.8°C 57.1°F13.9°C 89% 5.8 mph SE9.3 kmh SE 8.1 mph13.0 kmh 29.74 in1007.1 mb - 0.00 in0.0 mm 0.01 in0.3 mm
05:25 PM 60.4°F15.8°C 57.1°F13.9°C 89% 5.8 mph SE9.3 kmh SE 6.9 mph11.1 kmh 29.74 in1007.1 mb - 0.00 in0.0 mm 0.01 in0.3 mm
05:30 PM 60.3°F15.7°C 57.1°F13.9°C 89% 5.8 mph SE9.3 kmh SE 8.1 mph13.0 kmh 29.74 in1007.1 mb - 0.00 in0.0 mm 0.01 in0.3 mm
05:35 PM 60.3°F15.7°C 57.0°F13.9°C 89% 6.9 mph SE11.1 kmh SE 9.2 mph14.8 kmh 29.74 in1007.1 mb - 0.00 in0.0 mm 0.01 in0.3 mm
05:40 PM 60.3°F15.7°C 57.0°F13.9°C 89% 6.9 mph SE11.1 kmh SE 9.2 mph14.8 kmh 29.74 in1007.1 mb - 0.00 in0.0 mm 0.01 in0.3 mm
05:45 PM 60.3°F15.7°C 57.0°F13.9°C 89% 5.8 mph SE9.3 kmh SE 8.1 mph13.0 kmh 29.74 in1007.1 mb - 0.00 in0.0 mm 0.01 in0.3 mm
05:50 PM 60.3°F15.7°C 57.0°F13.9°C 89% 4.6 mph SE7.4 kmh SE 8.1 mph13.0 kmh 29.74 in1007.1 mb - 0.00 in0.0 mm 0.01 in0.3 mm
05:55 PM 60.2°F15.7°C 57.3°F14.1°C 90% 4.6 mph SE7.4 kmh SE 8.1 mph13.0 kmh 29.74 in1007.1 mb - 0.00 in0.0 mm 0.01 in0.3 mm
06:00 PM 60.2°F15.7°C 57.3°F14.1°C 90% 5.8 mph SE9.3 kmh SE 9.2 mph14.8 kmh 29.74 in1007.1 mb - 0.00 in0.0 mm 0.01 in0.3 mm
06:10 PM 60.1°F15.6°C 57.2°F14.0°C 90% 5.8 mph SE9.3 kmh SE 9.2 mph14.8 kmh 29.74 in1007.1 mb - 0.00 in0.0 mm 0.01 in0.3 mm
06:15 PM 60.1°F15.6°C 57.2°F14.0°C 90% 6.9 mph SE11.1 kmh SE 9.2 mph14.8 kmh 29.73 in1006.8 mb - 0.00 in0.0 mm 0.01 in0.3 mm
06:20 PM 60.1°F15.6°C 57.5°F14.2°C 91% 5.8 mph SE9.3 kmh SE 9.2 mph14.8 kmh 29.73 in1006.8 mb - 0.00 in0.0 mm 0.01 in0.3 mm
06:25 PM 60.1°F15.6°C 57.4°F14.1°C 91% 4.6 mph SE7.4 kmh SE 9.2 mph14.8 kmh 29.73 in1006.8 mb - 0.01 in0.3 mm 0.02 in0.5 mm
06:30 PM 60.0°F15.6°C 57.4°F14.1°C 91% 6.9 mph SE11.1 kmh SE 9.2 mph14.8 kmh 29.73 in1006.8 mb - 0.01 in0.3 mm 0.02 in0.5 mm
06:35 PM 60.0°F15.6°C 57.4°F14.1°C 91% 6.9 mph SE11.1 kmh SE 10.4 mph16.7 kmh 29.73 in1006.8 mb - 0.01 in0.3 mm 0.02 in0.5 mm
06:40 PM 59.9°F15.5°C 57.3°F14.1°C 91% 5.8 mph SE9.3 kmh SE 9.2 mph14.8 kmh 29.74 in1007.1 mb - 0.01 in0.3 mm 0.02 in0.5 mm
06:45 PM 59.9°F15.5°C 57.3°F14.1°C 91% 6.9 mph SE11.1 kmh SE 9.2 mph14.8 kmh 29.74 in1007.1 mb - 0.02 in0.5 mm 0.02 in0.5 mm
06:50 PM 59.9°F15.5°C 57.6°F14.2°C 92% 4.6 mph SE7.4 kmh SE 6.9 mph11.1 kmh 29.74 in1007.1 mb - 0.02 in0.5 mm 0.03 in0.8 mm
06:55 PM 59.8°F15.4°C 57.5°F14.2°C 92% 6.9 mph SE11.1 kmh SE 10.4 mph16.7 kmh 29.73 in1006.8 mb - 0.02 in0.5 mm 0.03 in0.8 mm
07:00 PM 59.9°F15.5°C 57.5°F14.2°C 92% 4.6 mph SE7.4 kmh SE 8.1 mph13.0 kmh 29.73 in1006.8 mb - 0.02 in0.5 mm 0.03 in0.8 mm
07:10 PM 59.9°F15.5°C 57.6°F14.2°C 92% 5.8 mph SE9.3 kmh SE 9.2 mph14.8 kmh 29.73 in1006.8 mb - 0.02 in0.5 mm 0.03 in0.8 mm
07:15 PM 59.9°F15.5°C 57.6°F14.2°C 92% 6.9 mph SE11.1 kmh SE 10.4 mph16.7 kmh 29.73 in1006.8 mb - 0.02 in0.5 mm 0.03 in0.8 mm
07:20 PM 59.9°F15.5°C 57.6°F14.2°C 92% 6.9 mph SE11.1 kmh SE 9.2 mph14.8 kmh 29.73 in1006.8 mb - 0.02 in0.5 mm 0.03 in0.8 mm
07:25 PM 59.9°F15.5°C 57.6°F14.2°C 92% 6.9 mph SE11.1 kmh SE 10.4 mph16.7 kmh 29.73 in1006.8 mb - 0.02 in0.5 mm 0.03 in0.8 mm
07:30 PM 59.9°F15.5°C 57.6°F14.2°C 92% 4.6 mph SE7.4 kmh SE 9.2 mph14.8 kmh 29.73 in1006.8 mb - 0.02 in0.5 mm 0.03 in0.8 mm
07:35 PM 59.9°F15.5°C 57.6°F14.2°C 92% 6.9 mph SE11.1 kmh SE 9.2 mph14.8 kmh 29.73 in1006.8 mb - 0.02 in0.5 mm 0.03 in0.8 mm
07:40 PM 60.0°F15.6°C 57.7°F14.3°C 92% 4.6 mph SE7.4 kmh SE 9.2 mph14.8 kmh 29.73 in1006.8 mb - 0.02 in0.5 mm 0.03 in0.8 mm
07:45 PM 60.0°F15.6°C 57.7°F14.3°C 92% 5.8 mph SE9.3 kmh SE 11.5 mph18.5 kmh 29.73 in1006.8 mb - 0.01 in0.3 mm 0.03 in0.8 mm
07:50 PM 60.0°F15.6°C 57.7°F14.3°C 92% 5.8 mph SE9.3 kmh SE 8.1 mph13.0 kmh 29.72 in1006.4 mb - 0.00 in0.0 mm 0.03 in0.8 mm
07:55 PM 60.0°F15.6°C 57.7°F14.3°C 92% 5.8 mph SE9.3 kmh SE 10.4 mph16.7 kmh 29.73 in1006.8 mb - 0.00 in0.0 mm 0.03 in0.8 mm
08:00 PM 60.1°F15.6°C 57.7°F14.3°C 92% 6.9 mph SE11.1 kmh SE 9.2 mph14.8 kmh 29.72 in1006.4 mb - 0.00 in0.0 mm 0.03 in0.8 mm
08:10 PM 60.1°F15.6°C 57.8°F14.3°C 92% 6.9 mph SE11.1 kmh SE 8.1 mph13.0 kmh 29.72 in1006.4 mb - 0.00 in0.0 mm 0.03 in0.8 mm
08:15 PM 60.1°F15.6°C 57.8°F14.3°C 92% 5.8 mph SE9.3 kmh SE 11.5 mph18.5 kmh 29.72 in1006.4 mb - 0.00 in0.0 mm 0.03 in0.8 mm
08:20 PM 60.1°F15.6°C 57.8°F14.3°C 92% 5.8 mph SE9.3 kmh SE 8.1 mph13.0 kmh 29.72 in1006.4 mb - 0.00 in0.0 mm 0.03 in0.8 mm
08:25 PM 60.1°F15.6°C 57.8°F14.3°C 92% 6.9 mph SSE11.1 kmh SSE 12.7 mph20.4 kmh 29.72 in1006.4 mb - 0.00 in0.0 mm 0.03 in0.8 mm
08:30 PM 60.1°F15.6°C 57.8°F14.3°C 92% 8.1 mph SSE13.0 kmh SSE 10.4 mph16.7 kmh 29.72 in1006.4 mb - 0.00 in0.0 mm 0.03 in0.8 mm
08:35 PM 60.1°F15.6°C 57.8°F14.3°C 92% 6.9 mph SE11.1 kmh SE 11.5 mph18.5 kmh 29.72 in1006.4 mb - 0.00 in0.0 mm 0.03 in0.8 mm
08:40 PM 60.1°F15.6°C 57.8°F14.3°C 92% 11.5 mph SSE18.5 kmh SSE 12.7 mph20.4 kmh 29.72 in1006.4 mb - 0.00 in0.0 mm 0.03 in0.8 mm
08:45 PM 60.2°F15.7°C 57.8°F14.3°C 92% 8.1 mph SE13.0 kmh SE 11.5 mph18.5 kmh 29.72 in1006.4 mb - 0.00 in0.0 mm 0.03 in0.8 mm
08:50 PM 60.2°F15.7°C 57.9°F14.4°C 92% 6.9 mph SSE11.1 kmh SSE 8.1 mph13.0 kmh 29.72 in1006.4 mb - 0.00 in0.0 mm 0.03 in0.8 mm
08:55 PM 60.2°F15.7°C 57.9°F14.4°C 92% 8.1 mph SSE13.0 kmh SSE 11.5 mph18.5 kmh 29.72 in1006.4 mb - 0.00 in0.0 mm 0.03 in0.8 mm
09:00 PM 60.2°F15.7°C 57.9°F14.4°C 92% 8.1 mph SSE13.0 kmh SSE 11.5 mph18.5 kmh 29.72 in1006.4 mb - 0.00 in0.0 mm 0.03 in0.8 mm
09:10 PM 60.2°F15.7°C 57.9°F14.4°C 92% 8.1 mph SSE13.0 kmh SSE 12.7 mph20.4 kmh 29.71 in1006.1 mb - 0.00 in0.0 mm 0.03 in0.8 mm
09:15 PM 60.2°F15.7°C 57.9°F14.4°C 92% 6.9 mph SSE11.1 kmh SSE 11.5 mph18.5 kmh 29.71 in1006.1 mb - 0.00 in0.0 mm 0.03 in0.8 mm
09:20 PM 60.2°F15.7°C 57.9°F14.4°C 92% 6.9 mph SSE11.1 kmh SSE 11.5 mph18.5 kmh 29.71 in1006.1 mb - 0.00 in0.0 mm 0.03 in0.8 mm
09:25 PM 60.2°F15.7°C 57.9°F14.4°C 92% 8.1 mph SSE13.0 kmh SSE 12.7 mph20.4 kmh 29.72 in1006.4 mb - 0.00 in0.0 mm 0.03 in0.8 mm
09:30 PM 60.2°F15.7°C 57.9°F14.4°C 92% 8.1 mph SSE13.0 kmh SSE 15.0 mph24.1 kmh 29.71 in1006.1 mb - 0.00 in0.0 mm 0.03 in0.8 mm
09:35 PM 60.2°F15.7°C 57.9°F14.4°C 92% 5.8 mph S9.3 kmh S 6.9 mph11.1 kmh 29.72 in1006.4 mb - 0.00 in0.0 mm 0.03 in0.8 mm
09:40 PM 60.2°F15.7°C 57.8°F14.3°C 92% 5.8 mph SSE9.3 kmh SSE 8.1 mph13.0 kmh 29.72 in1006.4 mb - 0.00 in0.0 mm 0.03 in0.8 mm
09:45 PM 60.1°F15.6°C 57.8°F14.3°C 92% 10.4 mph SSE16.7 kmh SSE 13.8 mph22.2 kmh 29.71 in1006.1 mb - 0.00 in0.0 mm 0.03 in0.8 mm
09:50 PM 60.1°F15.6°C 57.8°F14.3°C 92% 10.4 mph SSE16.7 kmh SSE 12.7 mph20.4 kmh 29.71 in1006.1 mb - 0.00 in0.0 mm 0.03 in0.8 mm
09:55 PM 60.1°F15.6°C 57.8°F14.3°C 92% 8.1 mph SSE13.0 kmh SSE 11.5 mph18.5 kmh 29.71 in1006.1 mb - 0.00 in0.0 mm 0.03 in0.8 mm
10:00 PM 60.1°F15.6°C 57.8°F14.3°C 92% 8.1 mph S13.0 kmh S 9.2 mph14.8 kmh 29.71 in1006.1 mb - 0.00 in0.0 mm 0.03 in0.8 mm
10:10 PM 60.1°F15.6°C 57.8°F14.3°C 92% 6.9 mph SSE11.1 kmh SSE 11.5 mph18.5 kmh 29.71 in1006.1 mb - 0.00 in0.0 mm 0.03 in0.8 mm
10:15 PM 60.2°F15.7°C 57.8°F14.3°C 92% 6.9 mph S11.1 kmh S 15.0 mph24.1 kmh 29.71 in1006.1 mb - 0.00 in0.0 mm 0.03 in0.8 mm
10:20 PM 60.1°F15.6°C 57.8°F14.3°C 92% 5.8 mph SSE9.3 kmh SSE 5.8 mph9.3 kmh 29.71 in1006.1 mb - 0.00 in0.0 mm 0.03 in0.8 mm
10:25 PM 60.1°F15.6°C 58.1°F14.5°C 93% 8.1 mph SSE13.0 kmh SSE 12.7 mph20.4 kmh 29.71 in1006.1 mb - 0.00 in0.0 mm 0.03 in0.8 mm
10:30 PM 60.2°F15.7°C 58.2°F14.6°C 93% 8.1 mph SSE13.0 kmh SSE 11.5 mph18.5 kmh 29.71 in1006.1 mb - 0.00 in0.0 mm 0.03 in0.8 mm
10:35 PM 60.2°F15.7°C 58.2°F14.6°C 93% 9.2 mph SSE14.8 kmh SSE 12.7 mph20.4 kmh 29.70 in1005.8 mb - 0.00 in0.0 mm 0.03 in0.8 mm
10:40 PM 60.2°F15.7°C 58.2°F14.6°C 93% 8.1 mph SSE13.0 kmh SSE 13.8 mph22.2 kmh 29.70 in1005.8 mb - 0.00 in0.0 mm 0.03 in0.8 mm
10:45 PM 60.2°F15.7°C 58.2°F14.6°C 93% 6.9 mph S11.1 kmh S 11.5 mph18.5 kmh 29.70 in1005.8 mb - 0.00 in0.0 mm 0.03 in0.8 mm
10:50 PM 60.2°F15.7°C 58.2°F14.6°C 93% 8.1 mph S13.0 kmh S 11.5 mph18.5 kmh 29.70 in1005.8 mb - 0.00 in0.0 mm 0.03 in0.8 mm
10:55 PM 60.2°F15.7°C 58.2°F14.6°C 93% 6.9 mph S11.1 kmh S 10.4 mph16.7 kmh 29.70 in1005.8 mb - 0.00 in0.0 mm 0.03 in0.8 mm
11:00 PM 60.2°F15.7°C 58.2°F14.6°C 93% 9.2 mph SSE14.8 kmh SSE 13.8 mph22.2 kmh 29.70 in1005.8 mb - 0.00 in0.0 mm 0.38 in9.7 mm
11:10 PM 60.3°F15.7°C 58.3°F14.6°C 93% 8.1 mph S13.0 kmh S 12.7 mph20.4 kmh 29.70 in1005.8 mb - 0.00 in0.0 mm 0.38 in9.7 mm
11:15 PM 60.3°F15.7°C 58.3°F14.6°C 93% 6.9 mph SSE11.1 kmh SSE 16.1 mph25.9 kmh 29.71 in1006.1 mb - 0.01 in0.3 mm 0.01 in0.3 mm
11:20 PM 60.3°F15.7°C 58.3°F14.6°C 93% 6.9 mph SSE11.1 kmh SSE 10.4 mph16.7 kmh 29.70 in1005.8 mb - 0.01 in0.3 mm 0.01 in0.3 mm
11:25 PM 60.4°F15.8°C 58.4°F14.7°C 93% 6.9 mph SSE11.1 kmh SSE 11.5 mph18.5 kmh 29.70 in1005.8 mb - 0.01 in0.3 mm 0.01 in0.3 mm
11:30 PM 60.4°F15.8°C 58.4°F14.7°C 93% 8.1 mph SSE13.0 kmh SSE 15.0 mph24.1 kmh 29.70 in1005.8 mb - 0.01 in0.3 mm 0.01 in0.3 mm
11:35 PM 60.5°F15.8°C 58.5°F14.7°C 93% 8.1 mph SSE13.0 kmh SSE 11.5 mph18.5 kmh 29.69 in1005.4 mb - 0.01 in0.3 mm 0.01 in0.3 mm
11:40 PM 60.5°F15.8°C 58.5°F14.7°C 93% 8.1 mph S13.0 kmh S 12.7 mph20.4 kmh 29.70 in1005.8 mb - 0.01 in0.3 mm 0.01 in0.3 mm
11:45 PM 60.5°F15.8°C 58.5°F14.7°C 93% 8.1 mph SSE13.0 kmh SSE 11.5 mph18.5 kmh 29.69 in1005.4 mb - 0.01 in0.3 mm 0.01 in0.3 mm
11:50 PM 60.6°F15.9°C 58.6°F14.8°C 93% 6.9 mph SSE11.1 kmh SSE 10.4 mph16.7 kmh 29.69 in1005.4 mb - 0.01 in0.3 mm 0.01 in0.3 mm
11:55 PM 60.5°F15.8°C 58.5°F14.7°C 93% 8.1 mph SSE13.0 kmh SSE 9.2 mph14.8 kmh 29.69 in1005.4 mb - 0.01 in0.3 mm 0.01 in0.3 mm